Time;durP1;ratioP1;P1;durP2;ratioP2;P2;SDS_P1;SDS_P2;PMS_P1;PMS_P2;Temp;Humidity;BMP_temperature;BMP_pressure;BME280_temperature;BME280_humidity;BME280_pressure;Samples;Min_cycle;Max_cycle;Signal;HPM_P1;HPM_P2
2023/06/29 00:01:47;;;;;;;;;;;;;;;;;;4973429;28;8522;-85
2023/06/29 00:04:18;;;;;;;;;;;;;;;;;;4973341;28;8533;-85
2023/06/29 00:06:44;;;;;;;;;;;;;;;;;;4973725;28;8977;-85
2023/06/29 00:09:10;;;;;;;;;;;;;;;;;;4973610;28;9274;-86
2023/06/29 00:11:36;;;;;;;;;;;;;;;;;;4973197;28;8461;-86
2023/06/29 00:14:02;;;;;;;;;;;;;;;;;;4973410;28;8537;-86
2023/06/29 00:16:27;;;;;;;;;;;;;;;;;;4973457;28;8445;-85
2023/06/29 00:18:55;;;;;;;;;;;;;;;;;;4973182;28;7165;-86
2023/06/29 00:21:20;;;;;;;;;;;;;;;;;;4973793;28;7463;-86
2023/06/29 00:23:46;;;;;;;;;;;;;;;;;;4973460;28;8797;-86
2023/06/29 00:26:13;;;;;;;;;;;;;;;;;;4973303;28;8485;-85
2023/06/29 00:28:39;;;;;;;;;;;;;;;;;;4973224;28;8428;-85
2023/06/29 00:31:05;;;;;;;;;;;;;;;;;;4975273;28;7250;-86
2023/06/29 00:33:31;;;;;;;;;;;;;;;;;;4977162;28;7424;-86
2023/06/29 00:35:57;;;;;;;;;;;;;;;;;;4977186;28;7143;-86
2023/06/29 00:38:22;;;;;;;;;;;;;;;;;;4977258;28;8511;-86
2023/06/29 00:40:48;;;;;;;;;;;;;;;;;;4977350;28;8491;-86
2023/06/29 00:43:14;;;;;;;;;;;;;;;;;;4976905;28;9494;-86
2023/06/29 00:45:39;;;;;;;;;;;;;;;;;;4977032;28;7803;-86
2023/06/29 00:48:06;;;;;;;;;;;;;;;;;;4977180;28;9428;-88
2023/06/29 00:50:32;;;;;;;;;;;;;;;;;;4977063;28;8461;-87
2023/06/29 00:52:58;;;;;;;;;;;;;;;;;;4977192;28;8537;-87
2023/06/29 00:55:24;;;;;;;;;;;;;;;;;;4976824;28;7251;-86
2023/06/29 00:57:50;;;;;;;;;;;;;;;;;;4977015;28;8473;-86
2023/06/29 01:00:16;;;;;;;;;;;;;;;;;;4976877;28;8439;-86
2023/06/29 01:02:42;;;;;;;;;;;;;;;;;;4976688;28;7136;-85
2023/06/29 01:05:09;;;;;;;;;;;;;;;;;;4976619;28;8516;-85
2023/06/29 01:07:44;;;;;;;;;;;;;;;;;;4976591;28;7289;-85
2023/06/29 01:10:11;;;;;;;;;;;;;;;;;;4976809;28;8525;-85
2023/06/29 01:12:38;;;;;;;;;;;;;;;;;;4976441;28;7324;-85
2023/06/29 01:15:05;;;;;;;;;;;;;;;;;;4976750;28;8424;-85
2023/06/29 01:17:34;;;;;;;;;;;;;;;;;;4976731;28;8718;-85
2023/06/29 01:20:01;;;;;;;;;;;;;;;;;;4975974;28;8618;-85
2023/06/29 01:22:31;;;;;;;;;;;;;;;;;;4976231;28;7263;-86
2023/06/29 01:24:59;;;;;;;;;;;;;;;;;;4976790;28;7178;-83
2023/06/29 01:27:25;;;;;;;;;;;;;;;;;;4976165;28;8827;-83
2023/06/29 01:29:55;;;;;;;;;;;;;;;;;;4976758;28;8691;-82
2023/06/29 01:32:25;;;;;;;;;;;;;;;;;;4976508;28;7146;-82
2023/06/29 01:34:51;;;;;;;;;;;;;;;;;;4976203;28;7341;-83
2023/06/29 01:37:25;;;;;;;;;;;;;;;;;;4976160;28;8546;-82
2023/06/29 01:39:58;;;;;;;;;;;;;;;;;;4976176;28;9535;-84
2023/06/29 01:42:25;;;;;;;;;;;;;;;;;;4974886;28;7122;-84
2023/06/29 01:44:54;;;;;;;;;;;;;;;;;;4975872;28;7317;-85
2023/06/29 01:47:21;;;;;;;;;;;;;;;;;;4976061;28;8901;-83
2023/06/29 01:49:48;;;;;;;;;;;;;;;;;;4975726;28;9201;-84
2023/06/29 01:52:14;;;;;;;;;;;;;;;;;;4976026;28;8523;-83
2023/06/29 01:54:40;;;;;;;;;;;;;;;;;;4975722;28;8762;-84
2023/06/29 01:57:07;;;;;;;;;;;;;;;;;;4975588;28;8635;-84
2023/06/29 01:59:33;;;;;;;;;;;;;;;;;;4975664;28;9785;-84
2023/06/29 02:01:58;;;;;;;;;;;;;;;;;;4975470;28;7595;-85
2023/06/29 02:04:24;;;;;;;;;;;;;;;;;;4975332;28;8812;-84
2023/06/29 02:06:49;;;;;;;;;;;;;;;;;;4975944;28;7217;-84
2023/06/29 02:09:15;;;;;;;;;;;;;;;;;;4975254;28;8495;-82
2023/06/29 02:11:41;;;;;;;;;;;;;;;;;;4975392;28;8538;-82
2023/06/29 02:14:07;;;;;;;;;;;;;;;;;;4975467;28;8534;-83
2023/06/29 02:16:32;;;;;;;;;;;;;;;;;;4975574;28;8656;-83
2023/06/29 02:18:58;;;;;;;;;;;;;;;;;;4975325;28;8568;-83
2023/06/29 02:21:24;;;;;;;;;;;;;;;;;;4975369;28;8521;-82
2023/06/29 02:23:49;;;;;;;;;;;;;;;;;;4975270;28;8658;-83
2023/06/29 02:26:16;;;;;;;;;;;;;;;;;;4975128;28;8770;-82
2023/06/29 02:28:42;;;;;;;;;;;;;;;;;;4975514;28;8622;-83
2023/06/29 02:31:08;;;;;;;;;;;;;;;;;;4974785;28;8721;-83
2023/06/29 02:33:34;;;;;;;;;;;;;;;;;;4975090;28;7334;-84
2023/06/29 02:35:59;;;;;;;;;;;;;;;;;;4975099;28;8641;-86
2023/06/29 02:38:25;;;;;;;;;;;;;;;;;;4975258;28;8734;-86
2023/06/29 02:40:51;;;;;;;;;;;;;;;;;;4975090;28;8684;-88
2023/06/29 02:43:17;;;;;;;;;;;;;;;;;;4975275;28;8515;-87
2023/06/29 02:45:42;;;;;;;;;;;;;;;;;;4974616;28;7294;-87
2023/06/29 02:48:08;;;;;;;;;;;;;;;;;;4975209;28;8595;-87
2023/06/29 02:50:34;;;;;;;;;;;;;;;;;;4974645;28;8607;-86
2023/06/29 02:52:59;;;;;;;;;;;;;;;;;;4974699;28;8930;-88
2023/06/29 02:55:25;;;;;;;;;;;;;;;;;;4974743;28;8606;-86
2023/06/29 02:57:51;;;;;;;;;;;;;;;;;;4974734;28;7251;-86
2023/06/29 03:00:16;;;;;;;;;;;;;;;;;;4974442;28;8564;-85
2023/06/29 03:02:42;;;;;;;;;;;;;;;;;;4974371;28;8820;-86
2023/06/29 03:05:08;;;;;;;;;;;;;;;;;;4991771;28;8562;-85
2023/06/29 03:07:34;;;;;;;;;;;;;;;;;;4993647;28;8827;-85
2023/06/29 03:10:00;;;;;;;;;;;;;;;;;;4993917;28;7268;-88
2023/06/29 03:12:26;;;;;;;;;;;;;;;;;;4993877;28;7297;-88
2023/06/29 03:14:52;;;;;;;;;;;;;;;;;;4994080;28;7253;-85
2023/06/29 03:17:17;;;;;;;;;;;;;;;;;;4993651;28;8711;-86
2023/06/29 03:19:43;;;;;;;;;;;;;;;;;;4993561;28;7135;-85
2023/06/29 03:22:09;;;;;;;;;;;;;;;;;;4993454;28;8533;-85
2023/06/29 03:24:34;;;;;;;;;;;;;;;;;;4993760;28;8991;-86
2023/06/29 03:27:00;;;;;;;;;;;;;;;;;;4993443;28;9507;-85
2023/06/29 03:29:26;;;;;;;;;;;;;;;;;;4993456;28;9357;-85
2023/06/29 03:31:51;;;;;;;;;;;;;;;;;;4993722;28;8846;-86
2023/06/29 03:34:17;;;;;;;;;;;;;;;;;;4993233;28;8566;-85
2023/06/29 03:36:43;;;;;;;;;;;;;;;;;;4993290;28;7405;-85
2023/06/29 03:39:09;;;;;;;;;;;;;;;;;;4993195;28;7263;-84
2023/06/29 03:41:34;;;;;;;;;;;;;;;;;;4993202;28;7504;-84
2023/06/29 03:44:00;;;;;;;;;;;;;;;;;;4993248;28;9552;-85
2023/06/29 03:46:25;;;;;;;;;;;;;;;;;;4993246;28;8598;-85
2023/06/29 03:48:51;;;;;;;;;;;;;;;;;;5009250;28;8589;-84
2023/06/29 03:51:16;;;;;;;;;;;;;;;;;;4993192;28;7155;-84
2023/06/29 03:53:42;;;;;;;;;;;;;;;;;;4993127;28;8637;-83
2023/06/29 03:56:07;;;;;;;;;;;;;;;;;;4993083;28;8486;-84
2023/06/29 03:58:33;;;;;;;;;;;;;;;;;;4992857;28;8883;-85
2023/06/29 04:00:59;;;;;;;;;;;;;;;;;;4993154;28;8494;-84
2023/06/29 04:03:24;;;;;;;;;;;;;;;;;;4993322;28;8538;-84
2023/06/29 04:05:50;;;;;;;;;;;;;;;;;;4992609;28;7216;-84
2023/06/29 04:08:15;;;;;;;;;;;;;;;;;;4993208;28;8846;-84
2023/06/29 04:10:41;;;;;;;;;;;;;;;;;;4992897;28;8575;-85
2023/06/29 04:13:06;;;;;;;;;;;;;;;;;;4992705;28;7150;-86
2023/06/29 04:15:32;;;;;;;;;;;;;;;;;;4992791;28;8500;-84
2023/06/29 04:17:58;;;;;;;;;;;;;;;;;;4993090;28;8877;-84
2023/06/29 04:20:24;;;;;;;;;;;;;;;;;;4992793;28;8779;-86
2023/06/29 04:22:49;;;;;;;;;;;;;;;;;;4992643;28;8579;-85
2023/06/29 04:25:15;;;;;;;;;;;;;;;;;;4992962;28;9018;-83
2023/06/29 04:27:41;;;;;;;;;;;;;;;;;;5008888;28;8882;-84
2023/06/29 04:30:08;;;;;;;;;;;;;;;;;;4992701;28;7133;-85
2023/06/29 04:32:34;;;;;;;;;;;;;;;;;;4992888;28;8533;-84
2023/06/29 04:35:01;;;;;;;;;;;;;;;;;;4992679;28;7282;-87
2023/06/29 04:37:35;;;;;;;;;;;;;;;;;;4993012;28;7262;-81
2023/06/29 04:40:01;;;;;;;;;;;;;;;;;;4992836;28;8512;-84
2023/06/29 04:42:30;;;;;;;;;;;;;;;;;;4977791;28;7077;-86
2023/06/29 04:44:56;;;;;;;;;;;;;;;;;;4973313;28;7399;-87
2023/06/29 04:47:21;;;;;;;;;;;;;;;;;;4974704;28;8524;-85
2023/06/29 04:49:51;;;;;;;;;;;;;;;;;;4991805;28;8594;-85
2023/06/29 04:52:18;;;;;;;;;;;;;;;;;;4989524;28;7184;-89
2023/06/29 04:54:44;;;;;;;;;;;;;;;;;;4986373;28;7171;-86
2023/06/29 04:57:12;;;;;;;;;;;;;;;;;;4972408;28;8611;-90
2023/06/29 04:59:37;;;;;;;;;;;;;;;;;;4972851;28;8851;-86
2023/06/29 05:02:04;;;;;;;;;;;;;;;;;;4969059;28;8422;-87
2023/06/29 05:04:30;;;;;;;;;;;;;;;;;;4953428;28;9121;-84
2023/06/29 05:06:55;;;;;;;;;;;;;;;;;;4953092;28;8505;-84
2023/06/29 05:09:21;;;;;;;;;;;;;;;;;;4952894;28;8891;-85
2023/06/29 05:11:46;;;;;;;;;;;;;;;;;;4953311;28;8529;-84
2023/06/29 05:14:12;;;;;;;;;;;;;;;;;;4953392;28;7284;-84
2023/06/29 05:16:37;;;;;;;;;;;;;;;;;;4954495;28;8866;-84
2023/06/29 05:19:04;;;;;;;;;;;;;;;;;;4957290;28;8499;-84
2023/06/29 05:21:29;;;;;;;;;;;;;;;;;;4956841;28;7115;-83
2023/06/29 05:23:55;;;;;;;;;;;;;;;;;;4967998;28;7260;-86
2023/06/29 05:26:21;;;;;;;;;;;;;;;;;;4992395;28;7303;-85
2023/06/29 05:28:46;;;;;;;;;;;;;;;;;;4987958;28;8424;-86
2023/06/29 05:31:12;;;;;;;;;;;;;;;;;;4974449;28;7295;-86
2023/06/29 05:33:37;;;;;;;;;;;;;;;;;;4982933;28;7292;-86
2023/06/29 05:36:03;;;;;;;;;;;;;;;;;;4974312;28;8616;-86
2023/06/29 05:38:29;;;;;;;;;;;;;;;;;;4975490;28;7184;-88
2023/06/29 05:40:55;;;;;;;;;;;;;;;;;;4976680;28;7450;-88
2023/06/29 05:43:22;;;;;;;;;;;;;;;;;;4977302;28;7227;-88
2023/06/29 05:45:48;;;;;;;;;;;;;;;;;;4975239;28;7111;-83
2023/06/29 05:48:13;;;;;;;;;;;;;;;;;;4976043;28;8506;-90
2023/06/29 05:50:39;;;;;;;;;;;;;;;;;;4975926;28;7267;-86
2023/06/29 05:53:05;;;;;;;;;;;;;;;;;;4975919;28;8580;-88
2023/06/29 05:55:30;;;;;;;;;;;;;;;;;;4976087;28;9453;-86
2023/06/29 05:57:56;;;;;;;;;;;;;;;;;;4975408;28;7366;-82
2023/06/29 06:00:22;;;;;;;;;;;;;;;;;;4976172;28;7275;-82
2023/06/29 06:02:48;;;;;;;;;;;;;;;;;;4998248;28;7202;-82
2023/06/29 06:05:14;;;;;;;;;;;;;;;;;;4998406;28;7460;-82
2023/06/29 06:07:39;;;;;;;;;;;;;;;;;;4998036;28;8521;-82
2023/06/29 06:10:06;;;;;;;;;;;;;;;;;;4998374;28;7258;-82
2023/06/29 06:12:31;;;;;;;;;;;;;;;;;;5015625;28;7016;-82
2023/06/29 06:14:57;;;;;;;;;;;;;;;;;;4998127;28;7121;-82
2023/06/29 06:17:23;;;;;;;;;;;;;;;;;;4998520;28;7761;-81
2023/06/29 06:19:49;;;;;;;;;;;;;;;;;;4997864;28;8510;-81
2023/06/29 06:22:14;;;;;;;;;;;;;;;;;;4998142;28;8584;-82
2023/06/29 06:24:40;;;;;;;;;;;;;;;;;;4997748;28;8838;-82
2023/06/29 06:27:06;;;;;;;;;;;;;;;;;;4997815;28;8967;-82
2023/06/29 06:29:32;;;;;;;;;;;;;;;;;;4997336;28;7272;-82
2023/06/29 06:31:58;;;;;;;;;;;;;;;;;;4997475;28;7320;-82
2023/06/29 06:34:24;;;;;;;;;;;;;;;;;;4997774;28;7278;-81
2023/06/29 06:36:50;;;;;;;;;;;;;;;;;;4991311;28;7256;-80
2023/06/29 06:39:15;;;;;;;;;;;;;;;;;;4995105;28;8827;-80
2023/06/29 06:41:41;;;;;;;;;;;;;;;;;;4986646;28;7253;-81
2023/06/29 06:44:07;;;;;;;;;;;;;;;;;;4997617;28;8563;-80
2023/06/29 06:46:33;;;;;;;;;;;;;;;;;;4997446;28;8683;-82
2023/06/29 06:48:58;;;;;;;;;;;;;;;;;;4997695;28;8944;-80
2023/06/29 06:51:25;;;;;;;;;;;;;;;;;;4997500;28;8544;-82
2023/06/29 06:53:51;;;;;;;;;;;;;;;;;;4997542;28;7164;-80
2023/06/29 06:56:17;;;;;;;;;;;;;;;;;;4997500;28;8465;-81
2023/06/29 06:58:42;;;;;;;;;;;;;;;;;;4997525;28;8489;-82
2023/06/29 07:01:08;;;;;;;;;;;;;;;;;;4993704;28;7267;-81
2023/06/29 07:03:34;;;;;;;;;;;;;;;;;;4994098;28;7248;-81
2023/06/29 07:06:00;;;;;;;;;;;;;;;;;;4993368;28;7145;-81
2023/06/29 07:08:25;;;;;;;;;;;;;;;;;;4993698;28;7291;-81
2023/06/29 07:10:51;;;;;;;;;;;;;;;;;;4993856;28;8772;-82
2023/06/29 07:13:18;;;;;;;;;;;;;;;;;;4993614;28;8453;-81
2023/06/29 07:15:45;;;;;;;;;;;;;;;;;;4993573;28;8935;-81
2023/06/29 07:18:11;;;;;;;;;;;;;;;;;;4993597;28;8484;-81
2023/06/29 07:20:37;;;;;;;;;;;;;;;;;;4993427;28;8529;-81
2023/06/29 07:23:02;;;;;;;;;;;;;;;;;;4993782;28;9025;-81
2023/06/29 07:25:28;;;;;;;;;;;;;;;;;;4989977;28;7336;-80
2023/06/29 07:27:54;;;;;;;;;;;;;;;;;;4974450;28;8674;-80
2023/06/29 07:30:20;;;;;;;;;;;;;;;;;;4988888;28;7132;-80
2023/06/29 07:32:45;;;;;;;;;;;;;;;;;;4974034;28;7174;-81
2023/06/29 07:35:11;;;;;;;;;;;;;;;;;;4976339;28;7128;-82
2023/06/29 07:37:36;;;;;;;;;;;;;;;;;;4989462;28;9444;-82
2023/06/29 07:40:04;;;;;;;;;;;;;;;;;;4989440;28;8522;-83
2023/06/29 07:42:30;;;;;;;;;;;;;;;;;;4990072;28;9052;-83
2023/06/29 07:44:55;;;;;;;;;;;;;;;;;;4989750;28;9450;-83
2023/06/29 07:47:21;;;;;;;;;;;;;;;;;;4989954;28;7127;-83
2023/06/29 07:49:47;;;;;;;;;;;;;;;;;;4989631;28;7196;-83
2023/06/29 07:52:12;;;;;;;;;;;;;;;;;;4989794;28;8488;-82
2023/06/29 07:54:38;;;;;;;;;;;;;;;;;;4989389;28;7271;-81
2023/06/29 07:57:03;;;;;;;;;;;;;;;;;;4989745;28;7347;-82
2023/06/29 07:59:29;;;;;;;;;;;;;;;;;;4989661;28;7317;-81
2023/06/29 08:01:55;;;;;;;;;;;;;;;;;;4989360;28;7425;-85
2023/06/29 08:04:20;;;;;;;;;;;;;;;;;;4989377;28;8813;-82
2023/06/29 08:06:46;;;;;;;;;;;;;;;;;;4989440;28;8408;-83
2023/06/29 08:09:11;;;;;;;;;;;;;;;;;;4989695;28;8493;-82
2023/06/29 08:11:37;;;;;;;;;;;;;;;;;;4989307;28;8504;-85
2023/06/29 08:14:04;;;;;;;;;;;;;;;;;;4989536;28;8610;-81
2023/06/29 08:16:30;;;;;;;;;;;;;;;;;;4989423;28;8971;-82
2023/06/29 08:18:55;;;;;;;;;;;;;;;;;;4989457;28;8646;-81
2023/06/29 08:21:20;;;;;;;;;;;;;;;;;;4989559;28;8498;-82
2023/06/29 08:23:46;;;;;;;;;;;;;;;;;;4989471;28;8951;-82
2023/06/29 08:26:15;;;;;;;;;;;;;;;;;;4989490;28;8499;-82
2023/06/29 08:28:41;;;;;;;;;;;;;;;;;;4989628;28;8458;-82
2023/06/29 08:31:06;;;;;;;;;;;;;;;;;;4989067;28;7243;-82
2023/06/29 08:33:31;;;;;;;;;;;;;;;;;;4989193;28;7206;-81
2023/06/29 08:35:57;;;;;;;;;;;;;;;;;;4983644;28;8543;-81
2023/06/29 08:38:22;;;;;;;;;;;;;;;;;;4985159;28;7235;-83
2023/06/29 08:40:48;;;;;;;;;;;;;;;;;;4992331;28;8510;-81
2023/06/29 08:43:17;;;;;;;;;;;;;;;;;;4991939;28;7137;-81
2023/06/29 08:45:44;;;;;;;;;;;;;;;;;;4992563;28;8549;-82
2023/06/29 08:48:12;;;;;;;;;;;;;;;;;;4992338;28;8591;-81
2023/06/29 08:50:41;;;;;;;;;;;;;;;;;;4992311;28;8817;-81
2023/06/29 08:53:07;;;;;;;;;;;;;;;;;;4995990;28;7228;-82
2023/06/29 08:55:33;;;;;;;;;;;;;;;;;;4996452;28;8524;-82
2023/06/29 08:58:00;;;;;;;;;;;;;;;;;;4996359;28;7133;-84
2023/06/29 09:00:26;;;;;;;;;;;;;;;;;;4996836;28;7140;-82
2023/06/29 09:02:53;;;;;;;;;;;;;;;;;;4999515;28;8916;-82
2023/06/29 09:05:21;;;;;;;;;;;;;;;;;;4999689;28;9801;-82
2023/06/29 09:07:47;;;;;;;;;;;;;;;;;;4999144;28;8825;-81
2023/06/29 09:10:12;;;;;;;;;;;;;;;;;;4999325;28;8917;-82
2023/06/29 09:12:38;;;;;;;;;;;;;;;;;;4999175;28;7324;-83
2023/06/29 09:15:11;;;;;;;;;;;;;;;;;;4999191;28;8903;-83
2023/06/29 09:17:36;;;;;;;;;;;;;;;;;;4999083;28;7270;-82
2023/06/29 09:20:08;;;;;;;;;;;;;;;;;;4999271;28;7248;-81
2023/06/29 09:22:33;;;;;;;;;;;;;;;;;;4999143;28;8716;-83
2023/06/29 09:25:00;;;;;;;;;;;;;;;;;;4998856;28;7311;-81
2023/06/29 09:27:28;;;;;;;;;;;;;;;;;;4999073;28;8495;-81
2023/06/29 09:29:56;;;;;;;;;;;;;;;;;;4998914;28;8509;-81
2023/06/29 09:32:22;;;;;;;;;;;;;;;;;;4998787;28;7276;-83
2023/06/29 09:34:49;;;;;;;;;;;;;;;;;;4995205;28;8582;-82
2023/06/29 09:37:18;;;;;;;;;;;;;;;;;;4979335;28;8524;-81
2023/06/29 09:39:49;;;;;;;;;;;;;;;;;;4978977;28;7223;-81
2023/06/29 09:42:16;;;;;;;;;;;;;;;;;;4979720;28;8801;-83
2023/06/29 09:44:45;;;;;;;;;;;;;;;;;;4989337;28;7443;-82
2023/06/29 09:47:11;;;;;;;;;;;;;;;;;;4995767;28;7285;-82
2023/06/29 09:49:50;;;;;;;;;;;;;;;;;;4991001;28;8600;-84
2023/06/29 09:52:16;;;;;;;;;;;;;;;;;;4998588;28;8455;-83
2023/06/29 09:54:43;;;;;;;;;;;;;;;;;;4997977;28;7452;-82
2023/06/29 09:57:10;;;;;;;;;;;;;;;;;;4998555;28;8768;-85
2023/06/29 09:59:40;;;;;;;;;;;;;;;;;;4998265;28;7146;-82
2023/06/29 10:02:08;;;;;;;;;;;;;;;;;;4994719;28;7283;-85
2023/06/29 10:04:34;;;;;;;;;;;;;;;;;;4994140;28;8535;-85
2023/06/29 10:07:07;;;;;;;;;;;;;;;;;;4995233;28;7253;-85
2023/06/29 10:09:40;;;;;;;;;;;;;;;;;;5010525;28;9307;-84
2023/06/29 10:12:09;;;;;;;;;;;;;;;;;;4982395;28;8603;-85
2023/06/29 10:14:36;;;;;;;;;;;;;;;;;;4994990;28;7361;-84
2023/06/29 10:17:06;;;;;;;;;;;;;;;;;;4991294;28;7143;-85
2023/06/29 10:19:34;;;;;;;;;;;;;;;;;;4991639;28;8456;-84
2023/06/29 10:22:04;;;;;;;;;;;;;;;;;;5000200;28;7197;-84
2023/06/29 10:24:33;;;;;;;;;;;;;;;;;;5002150;28;8513;-84
2023/06/29 10:27:00;;;;;;;;;;;;;;;;;;4994638;28;8545;-82
2023/06/29 10:29:26;;;;;;;;;;;;;;;;;;4994391;28;8435;-83
2023/06/29 10:31:58;;;;;;;;;;;;;;;;;;4994657;28;8485;-82
2023/06/29 10:34:27;;;;;;;;;;;;;;;;;;4994563;28;7318;-82
2023/06/29 10:36:58;;;;;;;;;;;;;;;;;;4994329;28;7413;-82
2023/06/29 10:39:39;;;;;;;;;;;;;;;;;;4994667;28;8918;-84
2023/06/29 10:42:31;;;;;;;;;;;;;;;;;;5013843;28;8533;-83
2023/06/29 10:44:56;;;;;;;;;;;;;;;;;;4996009;28;8834;-83
2023/06/29 10:47:38;;;;;;;;;;;;;;;;;;5010424;28;8945;-82
2023/06/29 10:50:10;;;;;;;;;;;;;;;;;;5010501;28;8915;-82
2023/06/29 10:52:36;;;;;;;;;;;;;;;;;;4994129;28;8507;-82
2023/06/29 10:55:22;;;;;;;;;;;;;;;;;;5010737;28;8931;-81
2023/06/29 10:57:53;;;;;;;;;;;;;;;;;;4994196;28;7262;-82
2023/06/29 11:00:20;;;;;;;;;;;;;;;;;;5010180;28;8834;-82
2023/06/29 11:02:47;;;;;;;;;;;;;;;;;;4999509;28;7179;-82
2023/06/29 11:05:14;;;;;;;;;;;;;;;;;;4976282;28;8552;-90
2023/06/29 11:07:44;;;;;;;;;;;;;;;;;;4993979;28;8562;-82
2023/06/29 11:10:10;;;;;;;;;;;;;;;;;;4990466;28;8543;-81
2023/06/29 11:12:37;;;;;;;;;;;;;;;;;;4974131;28;9551;-82
2023/06/29 11:15:03;;;;;;;;;;;;;;;;;;4974338;28;8512;-82
2023/06/29 11:17:29;;;;;;;;;;;;;;;;;;4974352;28;8534;-81
2023/06/29 11:19:54;;;;;;;;;;;;;;;;;;4974039;28;8615;-81
2023/06/29 11:22:20;;;;;;;;;;;;;;;;;;4974195;28;8682;-81
2023/06/29 11:24:45;;;;;;;;;;;;;;;;;;4982691;28;8330;-82
2023/06/29 11:27:15;;;;;;;;;;;;;;;;;;4993287;28;8784;-82
2023/06/29 11:29:40;;;;;;;;;;;;;;;;;;4993665;28;8530;-82
2023/06/29 11:32:12;;;;;;;;;;;;;;;;;;4993357;28;8495;-82
2023/06/29 11:34:38;;;;;;;;;;;;;;;;;;4993143;28;7295;-81
2023/06/29 11:37:04;;;;;;;;;;;;;;;;;;4993351;28;7171;-81
2023/06/29 11:39:30;;;;;;;;;;;;;;;;;;4993155;28;8499;-83
2023/06/29 11:41:56;;;;;;;;;;;;;;;;;;4993008;28;7341;-83
2023/06/29 11:44:26;;;;;;;;;;;;;;;;;;4993433;28;8836;-82
2023/06/29 11:46:56;;;;;;;;;;;;;;;;;;4993593;28;7139;-82
2023/06/29 11:49:23;;;;;;;;;;;;;;;;;;4993259;28;7276;-82
2023/06/29 11:51:49;;;;;;;;;;;;;;;;;;4993011;28;7352;-82
2023/06/29 11:54:15;;;;;;;;;;;;;;;;;;4993051;28;8458;-82
2023/06/29 11:56:42;;;;;;;;;;;;;;;;;;4993173;28;8509;-87
2023/06/29 11:59:10;;;;;;;;;;;;;;;;;;4993266;28;7554;-82
2023/06/29 12:01:37;;;;;;;;;;;;;;;;;;5009013;28;7274;-82
2023/06/29 12:04:08;;;;;;;;;;;;;;;;;;4984054;28;7447;-82
2023/06/29 12:06:34;;;;;;;;;;;;;;;;;;4973177;28;9276;-82
2023/06/29 12:08:59;;;;;;;;;;;;;;;;;;4983976;28;8473;-81
2023/06/29 12:11:25;;;;;;;;;;;;;;;;;;4991699;28;7239;-82
2023/06/29 12:13:53;;;;;;;;;;;;;;;;;;4992190;28;8837;-82
2023/06/29 12:16:20;;;;;;;;;;;;;;;;;;4992506;28;8514;-82
2023/06/29 12:18:47;;;;;;;;;;;;;;;;;;4997350;28;8539;-82
2023/06/29 12:21:17;;;;;;;;;;;;;;;;;;5011977;28;8420;-82
2023/06/29 12:23:42;;;;;;;;;;;;;;;;;;5007545;28;8849;-83
2023/06/29 12:26:08;;;;;;;;;;;;;;;;;;4991869;28;7127;-82
2023/06/29 12:28:33;;;;;;;;;;;;;;;;;;4992528;28;8572;-82
2023/06/29 12:31:02;;;;;;;;;;;;;;;;;;4992456;28;8534;-82
2023/06/29 12:33:27;;;;;;;;;;;;;;;;;;4992429;28;7151;-83
2023/06/29 12:35:52;;;;;;;;;;;;;;;;;;4991864;28;9583;-83
2023/06/29 12:38:18;;;;;;;;;;;;;;;;;;4992572;28;8512;-83
2023/06/29 12:40:43;;;;;;;;;;;;;;;;;;4992575;28;7350;-82
2023/06/29 12:43:09;;;;;;;;;;;;;;;;;;4992655;28;8786;-82
2023/06/29 12:45:35;;;;;;;;;;;;;;;;;;4992439;28;7344;-82
2023/06/29 12:48:01;;;;;;;;;;;;;;;;;;4992531;28;7169;-82
2023/06/29 12:50:26;;;;;;;;;;;;;;;;;;4992826;28;7240;-82
2023/06/29 12:52:52;;;;;;;;;;;;;;;;;;4992439;28;8892;-82
2023/06/29 12:55:17;;;;;;;;;;;;;;;;;;4991856;28;8508;-82
2023/06/29 12:57:44;;;;;;;;;;;;;;;;;;4999777;28;8377;-82
2023/06/29 13:00:09;;;;;;;;;;;;;;;;;;5008216;28;8549;-83
2023/06/29 13:02:35;;;;;;;;;;;;;;;;;;5000646;28;8370;-83
2023/06/29 13:05:01;;;;;;;;;;;;;;;;;;4990906;28;8941;-83
2023/06/29 13:07:26;;;;;;;;;;;;;;;;;;4992432;28;8578;-82
2023/06/29 13:09:52;;;;;;;;;;;;;;;;;;4992132;28;8826;-82
2023/06/29 13:12:18;;;;;;;;;;;;;;;;;;4992100;28;7273;-83
2023/06/29 13:14:45;;;;;;;;;;;;;;;;;;4992304;28;8659;-83
2023/06/29 13:17:12;;;;;;;;;;;;;;;;;;4992230;28;8795;-82
2023/06/29 13:19:38;;;;;;;;;;;;;;;;;;4992409;28;8524;-82
2023/06/29 13:22:05;;;;;;;;;;;;;;;;;;4992160;28;7379;-83
2023/06/29 13:24:31;;;;;;;;;;;;;;;;;;4991868;28;9271;-82
2023/06/29 13:26:57;;;;;;;;;;;;;;;;;;4991799;28;8815;-82
2023/06/29 13:29:23;;;;;;;;;;;;;;;;;;4991979;28;8775;-82
2023/06/29 13:31:49;;;;;;;;;;;;;;;;;;4992220;28;6913;-82
2023/06/29 13:34:16;;;;;;;;;;;;;;;;;;4991949;28;8760;-82
2023/06/29 13:36:41;;;;;;;;;;;;;;;;;;4992122;28;7463;-82
2023/06/29 13:39:07;;;;;;;;;;;;;;;;;;4993537;28;8467;-82
2023/06/29 13:41:37;;;;;;;;;;;;;;;;;;4995239;28;7144;-82
2023/06/29 13:44:03;;;;;;;;;;;;;;;;;;4995378;28;8824;-82
2023/06/29 13:46:28;;;;;;;;;;;;;;;;;;4995229;28;7328;-82
2023/06/29 13:48:54;;;;;;;;;;;;;;;;;;4992735;28;8462;-82
2023/06/29 13:51:19;;;;;;;;;;;;;;;;;;4976091;28;8428;-82
2023/06/29 13:53:45;;;;;;;;;;;;;;;;;;4975387;28;7259;-82
2023/06/29 13:56:10;;;;;;;;;;;;;;;;;;4975924;28;8657;-82
2023/06/29 13:58:36;;;;;;;;;;;;;;;;;;4975607;28;8555;-82
2023/06/29 14:01:01;;;;;;;;;;;;;;;;;;4975617;28;8467;-82
2023/06/29 14:03:27;;;;;;;;;;;;;;;;;;4981666;28;8489;-82
2023/06/29 14:05:52;;;;;;;;;;;;;;;;;;4995099;28;8438;-82
2023/06/29 14:08:18;;;;;;;;;;;;;;;;;;4994685;28;8644;-82
2023/06/29 14:10:43;;;;;;;;;;;;;;;;;;4994734;28;8500;-82
2023/06/29 14:13:09;;;;;;;;;;;;;;;;;;4995352;28;8511;-83
2023/06/29 14:15:36;;;;;;;;;;;;;;;;;;4991643;28;9162;-83
2023/06/29 14:18:03;;;;;;;;;;;;;;;;;;4975402;28;7181;-82
2023/06/29 14:20:28;;;;;;;;;;;;;;;;;;4990822;28;7288;-81
2023/06/29 14:22:54;;;;;;;;;;;;;;;;;;4994321;28;8840;-81
2023/06/29 14:25:21;;;;;;;;;;;;;;;;;;4994494;28;7511;-82
2023/06/29 14:27:46;;;;;;;;;;;;;;;;;;4994497;28;8805;-83
2023/06/29 14:30:12;;;;;;;;;;;;;;;;;;4994498;28;8781;-83
2023/06/29 14:32:39;;;;;;;;;;;;;;;;;;4994408;28;7125;-82
2023/06/29 14:35:05;;;;;;;;;;;;;;;;;;4994319;28;7157;-82
2023/06/29 14:37:31;;;;;;;;;;;;;;;;;;4994193;28;8476;-83
2023/06/29 14:39:57;;;;;;;;;;;;;;;;;;4994561;28;7350;-82
2023/06/29 14:42:22;;;;;;;;;;;;;;;;;;4994203;28;7128;-83
2023/06/29 14:44:48;;;;;;;;;;;;;;;;;;4994149;28;8934;-83
2023/06/29 14:47:13;;;;;;;;;;;;;;;;;;4994014;28;10027;-83
2023/06/29 14:49:39;;;;;;;;;;;;;;;;;;4993885;28;8855;-82
2023/06/29 14:52:05;;;;;;;;;;;;;;;;;;4994319;28;7215;-83
2023/06/29 14:54:31;;;;;;;;;;;;;;;;;;4994135;28;9555;-84
2023/06/29 14:56:57;;;;;;;;;;;;;;;;;;4994056;28;9859;-83
2023/06/29 14:59:23;;;;;;;;;;;;;;;;;;4994183;28;7270;-81
2023/06/29 15:01:49;;;;;;;;;;;;;;;;;;4990781;28;8509;-81
2023/06/29 15:04:15;;;;;;;;;;;;;;;;;;4977536;28;8984;-83
2023/06/29 15:06:42;;;;;;;;;;;;;;;;;;4980032;28;8475;-83
2023/06/29 15:09:08;;;;;;;;;;;;;;;;;;4992971;28;8513;-83
2023/06/29 15:11:34;;;;;;;;;;;;;;;;;;4993662;28;7183;-83
2023/06/29 15:14:00;;;;;;;;;;;;;;;;;;4992651;28;8901;-82
2023/06/29 15:16:27;;;;;;;;;;;;;;;;;;4992912;28;7305;-83
2023/06/29 15:18:53;;;;;;;;;;;;;;;;;;4992760;28;8561;-84
2023/06/29 15:21:18;;;;;;;;;;;;;;;;;;4992881;28;8452;-83
2023/06/29 15:23:44;;;;;;;;;;;;;;;;;;4992714;28;8392;-82
2023/06/29 15:26:09;;;;;;;;;;;;;;;;;;4992937;28;8421;-88
2023/06/29 15:28:35;;;;;;;;;;;;;;;;;;4992774;28;7434;-84
2023/06/29 15:31:00;;;;;;;;;;;;;;;;;;4992856;28;7174;-82
2023/06/29 15:33:26;;;;;;;;;;;;;;;;;;4993016;28;8527;-82
2023/06/29 15:35:51;;;;;;;;;;;;;;;;;;4993481;28;8420;-81
2023/06/29 15:38:17;;;;;;;;;;;;;;;;;;4993164;28;8482;-81
2023/06/29 15:40:43;;;;;;;;;;;;;;;;;;4977142;28;9295;-83
2023/06/29 15:43:08;;;;;;;;;;;;;;;;;;4979184;28;7221;-81
2023/06/29 15:45:34;;;;;;;;;;;;;;;;;;4980670;28;8533;-81
2023/06/29 15:47:59;;;;;;;;;;;;;;;;;;4992909;28;8518;-81
2023/06/29 15:50:25;;;;;;;;;;;;;;;;;;4992718;28;8504;-81
2023/06/29 15:52:50;;;;;;;;;;;;;;;;;;4992229;28;8558;-82
2023/06/29 15:55:16;;;;;;;;;;;;;;;;;;4992745;28;8837;-81
2023/06/29 15:57:41;;;;;;;;;;;;;;;;;;4992674;28;9787;-81
2023/06/29 16:00:07;;;;;;;;;;;;;;;;;;4992469;28;9630;-81
2023/06/29 16:02:32;;;;;;;;;;;;;;;;;;4991279;28;7234;-81
2023/06/29 16:04:58;;;;;;;;;;;;;;;;;;4973461;28;8513;-81
2023/06/29 16:07:24;;;;;;;;;;;;;;;;;;4973208;28;8538;-81
2023/06/29 16:09:50;;;;;;;;;;;;;;;;;;4983873;28;9189;-81
2023/06/29 16:12:16;;;;;;;;;;;;;;;;;;4992652;28;8751;-81
2023/06/29 16:14:41;;;;;;;;;;;;;;;;;;4992489;28;8925;-81
2023/06/29 16:17:07;;;;;;;;;;;;;;;;;;4988583;28;8462;-81
2023/06/29 16:19:32;;;;;;;;;;;;;;;;;;4973158;28;8531;-82
2023/06/29 16:21:57;;;;;;;;;;;;;;;;;;4971844;28;8482;-80
2023/06/29 16:24:23;;;;;;;;;;;;;;;;;;4973200;28;8795;-80
2023/06/29 16:26:48;;;;;;;;;;;;;;;;;;4972045;28;8551;-81
2023/06/29 16:29:14;;;;;;;;;;;;;;;;;;4972679;28;7134;-81
2023/06/29 16:31:40;;;;;;;;;;;;;;;;;;4973286;28;7210;-81
2023/06/29 16:34:05;;;;;;;;;;;;;;;;;;4973161;28;8613;-83
2023/06/29 16:36:31;;;;;;;;;;;;;;;;;;4973052;28;7524;-81
2023/06/29 16:38:56;;;;;;;;;;;;;;;;;;4973131;28;8585;-82
2023/06/29 16:41:22;;;;;;;;;;;;;;;;;;4972982;28;8428;-81
2023/06/29 16:43:49;;;;;;;;;;;;;;;;;;4972764;28;7110;-81
2023/06/29 16:46:15;;;;;;;;;;;;;;;;;;4973360;28;8872;-82
2023/06/29 16:48:53;;;;;;;;;;;;;;;;;;4973061;28;8827;-81
2023/06/29 16:51:19;;;;;;;;;;;;;;;;;;4989096;28;8430;-83
2023/06/29 16:53:44;;;;;;;;;;;;;;;;;;4989045;28;8450;-82
2023/06/29 16:56:10;;;;;;;;;;;;;;;;;;4972894;28;8553;-81
2023/06/29 16:58:35;;;;;;;;;;;;;;;;;;4972415;28;8639;-82